createdAt,value
2022-10-11T00:01:17.996Z,9.27
2022-10-11T00:03:44.593Z,9.29
2022-10-11T00:06:11.123Z,9.37
2022-10-11T00:08:37.670Z,9.35
2022-10-11T00:11:06.771Z,9.36
2022-10-11T00:13:33.465Z,9.32
2022-10-11T00:16:00.014Z,9.20
2022-10-11T00:18:26.805Z,9.22
2022-10-11T00:21:06.876Z,9.20
2022-10-11T00:23:33.996Z,9.17
2022-10-11T00:26:02.397Z,9.20
2022-10-11T00:28:29.918Z,9.16
2022-10-11T00:30:56.970Z,9.07
2022-10-11T00:33:23.386Z,9.06
2022-10-11T00:35:50.011Z,9.04
2022-10-11T00:38:16.876Z,8.93
2022-10-11T00:40:44.067Z,8.88
2022-10-11T00:43:23.444Z,8.81
2022-10-11T00:46:22.593Z,8.76
2022-10-11T00:48:53.798Z,8.75
2022-10-11T00:51:37.347Z,8.73
2022-10-11T00:54:04.888Z,8.70
2022-10-11T00:56:35.239Z,8.63
2022-10-11T00:59:06.046Z,8.62
2022-10-11T01:01:32.774Z,8.63
2022-10-11T01:03:59.523Z,8.63
2022-10-11T01:06:26.045Z,8.69
2022-10-11T01:08:53.078Z,8.69
2022-10-11T01:11:22.944Z,8.72
2022-10-11T01:14:10.842Z,8.68
2022-10-11T01:17:15.746Z,8.66
2022-10-11T01:19:45.543Z,8.68
2022-10-11T01:22:33.378Z,8.64
2022-10-11T01:25:05.417Z,8.58
2022-10-11T01:27:53.729Z,8.45
2022-10-11T01:30:31.721Z,8.36
2022-10-11T01:33:16.565Z,8.32
2022-10-11T01:35:48.850Z,8.34
2022-10-11T01:38:30.590Z,8.22
2022-10-11T01:41:03.217Z,8.22
2022-10-11T01:43:30.458Z,8.25
2022-10-11T01:45:58.879Z,8.28
2022-10-11T01:48:25.410Z,8.21
2022-10-11T01:51:03.265Z,8.19
2022-10-11T01:54:07.129Z,8.26
2022-10-11T01:56:51.997Z,8.30
2022-10-11T01:59:49.602Z,8.23
2022-10-11T02:02:53.590Z,8.14
2022-10-11T02:05:31.267Z,8.12
2022-10-11T02:08:23.976Z,8.01
2022-10-11T02:11:15.483Z,8.03
2022-10-11T02:13:54.330Z,8.07
2022-10-11T02:16:26.929Z,8.12
2022-10-11T02:18:56.679Z,8.15
2022-10-11T02:21:23.763Z,8.18
2022-10-11T02:23:55.196Z,8.20
2022-10-11T02:26:24.866Z,8.15
2022-10-11T02:28:56.686Z,7.95
2022-10-11T02:31:25.046Z,7.93
2022-10-11T02:34:14.734Z,7.90
2022-10-11T02:37:04.015Z,7.79
2022-10-11T02:39:49.070Z,7.68
2022-10-11T02:42:26.413Z,7.71
2022-10-11T02:45:11.750Z,7.64
2022-10-11T02:47:38.441Z,7.60
2022-10-11T02:50:05.430Z,7.51
2022-10-11T02:52:31.843Z,7.49
2022-10-11T02:54:58.277Z,7.52
2022-10-11T02:57:24.707Z,7.57
2022-10-11T02:59:51.115Z,7.58
2022-10-11T03:02:17.541Z,7.56
2022-10-11T03:04:44.073Z,7.56
2022-10-11T03:07:10.495Z,7.60
2022-10-11T03:09:36.935Z,7.56
2022-10-11T03:12:03.542Z,7.53
2022-10-11T03:14:30.009Z,7.57
2022-10-11T03:17:00.734Z,7.58
2022-10-11T03:19:38.676Z,7.48
2022-10-11T03:22:05.170Z,7.45
2022-10-11T03:24:31.583Z,7.40
2022-10-11T03:26:58.039Z,7.42
2022-10-11T03:29:24.478Z,7.37
2022-10-11T03:31:50.932Z,7.33
2022-10-11T03:34:17.347Z,7.29
2022-10-11T03:36:43.786Z,7.30
2022-10-11T03:39:10.183Z,7.28
2022-10-11T03:41:36.574Z,7.31
2022-10-11T03:44:03.593Z,7.33
2022-10-11T03:46:30.109Z,7.33
2022-10-11T03:48:56.494Z,7.34
2022-10-11T03:51:22.871Z,7.35
2022-10-11T03:53:49.269Z,7.38
2022-10-11T03:56:16.350Z,7.43
2022-10-11T03:58:43.040Z,7.45
2022-10-11T04:01:09.606Z,7.48
2022-10-11T04:03:36.115Z,7.47
2022-10-11T04:06:03.055Z,7.44
2022-10-11T04:08:29.814Z,7.44
2022-10-11T04:10:56.248Z,7.43
2022-10-11T04:13:22.657Z,7.43
2022-10-11T04:15:49.079Z,7.40
2022-10-11T04:18:15.569Z,7.42
2022-10-11T04:20:42.706Z,7.37
2022-10-11T04:23:09.222Z,7.41
2022-10-11T04:25:38.385Z,7.42
2022-10-11T04:28:05.182Z,7.41
2022-10-11T04:30:31.580Z,7.40
2022-10-11T04:32:58.029Z,7.44
2022-10-11T04:35:24.446Z,7.43
2022-10-11T04:37:50.856Z,7.37
2022-10-11T04:40:17.391Z,7.38
2022-10-11T04:42:43.884Z,7.42
2022-10-11T04:45:10.527Z,7.40
2022-10-11T04:47:36.982Z,7.33
2022-10-11T04:50:03.981Z,7.23
2022-10-11T04:52:30.425Z,7.21
2022-10-11T04:54:56.870Z,7.21
2022-10-11T04:57:23.290Z,7.20
2022-10-11T04:59:50.384Z,7.15
2022-10-11T05:02:17.221Z,7.11
2022-10-11T05:04:43.734Z,7.14
2022-10-11T05:07:10.160Z,7.12
2022-10-11T05:09:36.564Z,7.06
2022-10-11T05:12:03.483Z,7.03
2022-10-11T05:14:30.041Z,6.94
2022-10-11T05:16:56.774Z,6.83
2022-10-11T05:19:23.364Z,6.81
2022-10-11T05:21:49.798Z,6.77
2022-10-11T05:24:16.267Z,6.71
2022-10-11T05:26:42.920Z,6.69
2022-10-11T05:29:09.300Z,6.71
2022-10-11T05:31:35.734Z,6.74
2022-10-11T05:34:02.141Z,6.78
2022-10-11T05:36:28.592Z,6.82
2022-10-11T05:38:55.042Z,6.85
2022-10-11T05:41:21.507Z,6.80
2022-10-11T05:43:47.978Z,6.79
2022-10-11T05:46:14.514Z,6.75
2022-10-11T05:48:41.120Z,6.83
2022-10-11T05:51:09.959Z,6.80
2022-10-11T05:53:37.852Z,6.79
2022-10-11T05:56:05.056Z,6.79
2022-10-11T05:58:31.844Z,6.80
2022-10-11T06:00:58.306Z,6.79
2022-10-11T06:03:24.813Z,6.79
2022-10-11T06:05:55.757Z,6.81
2022-10-11T06:08:23.312Z,6.77
2022-10-11T06:10:49.710Z,6.79
2022-10-11T06:13:16.185Z,6.80
2022-10-11T06:15:42.588Z,6.81
2022-10-11T06:18:09.050Z,6.81
2022-10-11T06:20:36.551Z,6.84
2022-10-11T06:23:02.953Z,6.88
2022-10-11T06:25:29.351Z,6.91
2022-10-11T06:27:55.996Z,6.94
2022-10-11T06:30:22.576Z,6.98
2022-10-11T06:32:48.973Z,7.01
2022-10-11T06:35:15.417Z,7.06
2022-10-11T06:37:41.855Z,7.08
2022-10-11T06:40:08.743Z,7.06
2022-10-11T06:42:35.150Z,7.11
2022-10-11T06:45:01.624Z,7.13
2022-10-11T06:47:28.026Z,7.12
2022-10-11T06:49:54.436Z,7.11
2022-10-11T06:52:20.845Z,7.16
2022-10-11T06:54:47.302Z,7.27
2022-10-11T06:57:13.863Z,7.32
2022-10-11T06:59:40.275Z,7.40
2022-10-11T07:02:06.924Z,7.47
2022-10-11T07:04:33.922Z,7.55
2022-10-11T07:07:00.703Z,7.60
2022-10-11T07:09:27.141Z,7.66
2022-10-11T07:11:53.790Z,7.75
2022-10-11T07:14:20.220Z,7.81
2022-10-11T07:16:46.681Z,7.87
2022-10-11T07:19:13.140Z,7.92
2022-10-11T07:21:39.595Z,7.98
2022-10-11T07:24:06.410Z,8.07
2022-10-11T07:26:38.890Z,8.18
2022-10-11T07:29:07.088Z,8.26
2022-10-11T07:31:33.592Z,8.36
2022-10-11T07:34:00.043Z,8.42
2022-10-11T07:36:26.470Z,8.54
2022-10-11T07:38:52.955Z,8.66
2022-10-11T07:41:19.872Z,8.75
2022-10-11T07:43:47.888Z,8.88
2022-10-11T07:46:14.605Z,9.00
2022-10-11T07:48:41.634Z,9.14
2022-10-11T07:51:14.381Z,9.26
2022-10-11T07:53:46.199Z,9.42
2022-10-11T07:56:14.671Z,9.54
2022-10-11T07:58:42.111Z,9.66
2022-10-11T08:01:10.454Z,9.77
2022-10-11T08:03:38.195Z,9.89
2022-10-11T08:06:07.912Z,10.03
2022-10-11T08:08:35.508Z,10.12
2022-10-11T08:11:02.068Z,10.29
2022-10-11T08:13:28.597Z,10.40
2022-10-11T08:15:55.216Z,10.55
2022-10-11T08:18:21.891Z,10.64
2022-10-11T08:20:48.980Z,10.74
2022-10-11T08:23:17.176Z,10.85
2022-10-11T08:25:47.043Z,11.01
2022-10-11T08:28:17.952Z,11.10
2022-10-11T08:30:49.748Z,11.24
2022-10-11T08:33:17.794Z,11.40
2022-10-11T08:35:44.597Z,11.57
2022-10-11T08:38:11.645Z,11.72
2022-10-11T08:40:38.778Z,11.91
2022-10-11T08:43:13.987Z,12.02
2022-10-11T08:45:50.449Z,12.07
2022-10-11T08:48:40.701Z,12.18
2022-10-11T08:51:27.689Z,12.25
2022-10-11T08:54:12.789Z,12.36
2022-10-11T08:56:41.813Z,12.55
2022-10-11T08:59:11.199Z,12.76
2022-10-11T09:01:44.693Z,12.86
2022-10-11T09:04:14.245Z,12.94
2022-10-11T09:07:03.949Z,13.20
2022-10-11T09:10:06.455Z,13.40
2022-10-11T09:13:02.258Z,13.65
2022-10-11T09:15:41.987Z,13.81
2022-10-11T09:18:20.437Z,13.95
2022-10-11T09:21:16.122Z,14.15
2022-10-11T09:24:11.666Z,14.20
2022-10-11T09:26:43.451Z,14.18
2022-10-11T09:29:20.505Z,14.13
2022-10-11T09:31:54.658Z,14.29
2022-10-11T09:34:25.325Z,14.42
2022-10-11T09:37:09.730Z,14.72
2022-10-11T09:39:50.915Z,14.75
2022-10-11T09:42:17.387Z,14.98
2022-10-11T09:44:50.555Z,15.11
2022-10-11T09:47:24.077Z,15.34
2022-10-11T09:49:56.603Z,15.59
2022-10-11T09:52:24.092Z,15.52
2022-10-11T09:54:54.994Z,15.59
2022-10-11T09:57:21.587Z,15.57
2022-10-11T10:00:21.976Z,15.84
2022-10-11T10:02:53.861Z,15.89
2022-10-11T10:05:25.400Z,15.95
2022-10-11T10:07:59.749Z,16.10
2022-10-11T10:10:43.228Z,16.34
2022-10-11T10:13:23.244Z,16.25
2022-10-11T10:15:59.123Z,16.39
2022-10-11T10:18:38.835Z,16.16
2022-10-11T10:21:11.331Z,16.22
2022-10-11T10:23:37.864Z,16.24
2022-10-11T10:26:20.544Z,16.38
2022-10-11T10:29:09.945Z,16.69
2022-10-11T10:31:55.370Z,16.72
2022-10-11T10:34:37.545Z,16.92
2022-10-11T10:37:08.518Z,17.07
2022-10-11T10:39:37.576Z,17.27
2022-10-11T10:42:10.000Z,17.63
2022-10-11T10:44:36.449Z,18.04
2022-10-11T10:47:28.821Z,18.26
2022-10-11T10:50:06.891Z,18.46
2022-10-11T10:52:47.709Z,18.56
2022-10-11T10:55:44.961Z,18.52
2022-10-11T10:58:45.201Z,18.43
2022-10-11T11:01:17.809Z,18.44
2022-10-11T11:03:51.867Z,18.46
2022-10-11T11:06:34.147Z,18.86
2022-10-11T11:09:17.709Z,19.42
2022-10-11T11:11:44.102Z,19.77
2022-10-11T11:14:18.328Z,19.95
2022-10-11T11:17:12.790Z,20.27
2022-10-11T11:19:59.786Z,20.28
2022-10-11T11:22:44.978Z,20.13
2022-10-11T11:25:49.976Z,19.80
2022-10-11T11:28:22.537Z,19.42
2022-10-11T11:30:52.055Z,19.23
2022-10-11T11:33:49.704Z,19.26
2022-10-11T11:36:39.420Z,19.68
2022-10-11T11:39:10.814Z,19.96
2022-10-11T11:41:44.009Z,20.16
2022-10-11T11:44:28.350Z,20.53
2022-10-11T11:47:08.887Z,20.89
2022-10-11T11:52:23.136Z,21.90
2022-10-11T11:55:16.936Z,21.80
2022-10-11T11:57:57.741Z,22.31
2022-10-11T12:00:30.916Z,22.44
2022-10-11T12:03:02.374Z,22.77
2022-10-11T12:05:32.960Z,23.24
2022-10-11T12:08:24.083Z,23.12
2022-10-11T12:10:50.469Z,22.81
2022-10-11T12:13:21.594Z,22.83
2022-10-11T12:16:05.933Z,22.61
2022-10-11T12:18:38.218Z,22.49
2022-10-11T12:21:18.903Z,22.12
2022-10-11T12:23:52.385Z,21.60
2022-10-11T12:26:28.006Z,21.32
2022-10-11T12:29:20.774Z,21.06
2022-10-11T12:31:58.820Z,20.70
2022-10-11T12:34:44.922Z,20.18
2022-10-11T12:37:17.520Z,19.57
2022-10-11T12:39:54.499Z,20.10
2022-10-11T12:42:32.928Z,21.19
2022-10-11T12:45:12.101Z,22.58
2022-10-11T12:48:05.872Z,23.52
2022-10-11T12:51:24.861Z,24.69
2022-10-11T12:54:27.330Z,25.52
2022-10-11T12:57:12.179Z,26.31
2022-10-11T12:59:45.236Z,25.93
2022-10-11T13:02:29.097Z,26.36
2022-10-11T13:05:08.142Z,27.04
2022-10-11T13:07:35.627Z,27.55
2022-10-11T13:10:04.965Z,27.96
2022-10-11T13:12:40.353Z,28.55
2022-10-11T13:15:12.978Z,28.75
2022-10-11T13:17:40.790Z,29.17
2022-10-11T13:20:07.171Z,29.58
2022-10-11T13:22:35.178Z,29.79
2022-10-11T13:25:05.559Z,29.75
2022-10-11T13:27:32.326Z,30.04
2022-10-11T13:30:02.296Z,29.92
2022-10-11T13:32:31.125Z,30.12
2022-10-11T13:35:02.311Z,30.65
2022-10-11T13:37:30.605Z,30.93
2022-10-11T13:39:57.631Z,30.90
2022-10-11T13:42:30.033Z,30.86
2022-10-11T13:44:57.260Z,31.04
2022-10-11T13:47:29.212Z,31.09
2022-10-11T13:50:07.863Z,31.12
2022-10-11T13:52:34.771Z,31.25
2022-10-11T13:55:04.176Z,31.27
2022-10-11T13:57:45.963Z,31.03
2022-10-11T14:00:15.188Z,31.04
2022-10-11T14:02:49.995Z,30.96
2022-10-11T14:05:29.536Z,31.32
2022-10-11T14:07:58.556Z,31.19
2022-10-11T14:10:25.889Z,30.98
2022-10-11T14:13:29.552Z,30.32
2022-10-11T14:16:09.379Z,29.39
2022-10-11T14:18:41.589Z,28.89
2022-10-11T14:21:20.342Z,27.88
2022-10-11T14:23:50.441Z,27.47
2022-10-11T14:26:19.048Z,27.11
2022-10-11T14:28:49.126Z,26.79
2022-10-11T14:31:15.638Z,26.44
2022-10-11T14:33:42.163Z,26.46
2022-10-11T14:36:08.894Z,26.11
2022-10-11T14:38:35.553Z,25.87
2022-10-11T14:41:01.969Z,25.77
2022-10-11T14:43:28.385Z,25.57
2022-10-11T14:45:54.828Z,25.54
2022-10-11T14:48:43.030Z,25.29
2022-10-11T14:51:12.098Z,25.03
2022-10-11T14:53:41.994Z,24.87
2022-10-11T14:56:08.826Z,24.60
2022-10-11T14:58:35.388Z,24.47
2022-10-11T15:01:01.806Z,24.33
2022-10-11T15:03:28.258Z,23.88
2022-10-11T15:05:54.827Z,23.51
2022-10-11T15:08:21.284Z,23.05
2022-10-11T15:10:47.755Z,22.57
2022-10-11T15:13:14.295Z,22.35
2022-10-11T15:15:41.527Z,22.13
2022-10-11T15:18:12.614Z,21.98
2022-10-11T15:20:43.165Z,21.87
2022-10-11T15:23:10.126Z,21.55
2022-10-11T15:25:38.358Z,21.40
2022-10-11T15:28:06.068Z,21.20
2022-10-11T15:30:40.145Z,20.96
2022-10-11T15:33:08.489Z,20.76
2022-10-11T15:35:34.940Z,20.52
2022-10-11T15:38:01.363Z,20.38
2022-10-11T15:40:33.488Z,20.20
2022-10-11T15:43:00.409Z,20.04
2022-10-11T15:45:27.191Z,19.89
2022-10-11T15:47:53.691Z,19.74
2022-10-11T15:50:37.204Z,19.54
2022-10-11T15:53:06.866Z,19.40
2022-10-11T15:55:35.110Z,19.28
2022-10-11T15:58:01.862Z,19.09
2022-10-11T16:00:29.398Z,18.96
2022-10-11T16:02:57.517Z,18.81
2022-10-11T16:05:26.407Z,18.61
2022-10-11T16:07:53.537Z,18.38
2022-10-11T16:10:20.831Z,18.23
2022-10-11T16:12:47.358Z,18.07
2022-10-11T16:15:13.943Z,17.95
2022-10-11T16:17:40.390Z,17.83
2022-10-11T16:20:07.653Z,17.74
2022-10-11T16:22:35.190Z,17.61
2022-10-11T16:25:02.621Z,17.47
2022-10-11T16:27:29.156Z,17.31
2022-10-11T16:29:55.815Z,17.14
2022-10-11T16:32:23.151Z,17.01
2022-10-11T16:34:50.058Z,16.82
2022-10-11T16:37:16.748Z,16.57
2022-10-11T16:39:43.481Z,16.44
2022-10-11T16:42:09.945Z,16.36
2022-10-11T16:44:38.491Z,16.15
2022-10-11T16:47:06.264Z,15.99
2022-10-11T16:49:33.159Z,15.90
2022-10-11T16:52:00.669Z,15.80
2022-10-11T16:54:27.534Z,15.64
2022-10-11T16:56:54.268Z,15.48
2022-10-11T16:59:20.768Z,15.48
2022-10-11T17:01:47.332Z,15.37
2022-10-11T17:04:14.774Z,15.25
2022-10-11T17:06:43.713Z,15.09
2022-10-11T17:09:10.478Z,14.95
2022-10-11T17:11:36.985Z,14.89
2022-10-11T17:14:05.827Z,14.79
2022-10-11T17:16:32.413Z,14.69
2022-10-11T17:18:58.842Z,14.64
2022-10-11T17:21:25.282Z,14.54
2022-10-11T17:23:51.830Z,14.47
2022-10-11T17:26:22.102Z,14.35
2022-10-11T17:28:49.014Z,14.27
2022-10-11T17:31:15.561Z,14.23
2022-10-11T17:33:42.053Z,14.15
2022-10-11T17:36:16.377Z,13.98
2022-10-11T17:38:42.903Z,13.89
2022-10-11T17:41:10.311Z,13.78
2022-10-11T17:43:36.830Z,13.68
2022-10-11T17:46:05.958Z,13.66
2022-10-11T17:48:36.467Z,13.54
2022-10-11T17:51:11.561Z,13.47
2022-10-11T17:53:38.545Z,13.38
2022-10-11T17:56:07.750Z,13.28
2022-10-11T17:58:34.476Z,13.27
2022-10-11T18:01:13.626Z,13.23
2022-10-11T18:03:40.956Z,13.16
2022-10-11T18:06:10.008Z,13.08
2022-10-11T18:08:40.591Z,13.02
2022-10-11T18:11:12.557Z,12.88
2022-10-11T18:13:42.614Z,12.76
2022-10-11T18:16:09.935Z,12.69
2022-10-11T18:18:36.716Z,12.67
2022-10-11T18:21:03.704Z,12.61
2022-10-11T18:23:30.706Z,12.55
2022-10-11T18:25:57.271Z,12.49
2022-10-11T18:28:23.852Z,12.49
2022-10-11T18:30:50.537Z,12.44
2022-10-11T18:33:17.551Z,12.35
2022-10-11T18:35:43.981Z,12.31
2022-10-11T18:38:10.446Z,12.27
2022-10-11T18:40:41.323Z,12.13
2022-10-11T18:43:11.238Z,12.12
2022-10-11T18:45:37.635Z,12.07
2022-10-11T18:48:04.292Z,11.99
2022-10-11T18:50:34.853Z,11.97
2022-10-11T18:53:01.925Z,11.88
2022-10-11T18:55:28.469Z,11.87
2022-10-11T18:57:54.919Z,11.79
2022-10-11T19:00:40.227Z,11.77
2022-10-11T19:03:07.874Z,11.67
2022-10-11T19:05:34.382Z,11.60
2022-10-11T19:08:00.819Z,11.60
2022-10-11T19:10:27.319Z,11.52
2022-10-11T19:12:53.755Z,11.51
2022-10-11T19:15:20.170Z,11.43
2022-10-11T19:17:46.627Z,11.40
2022-10-11T19:20:13.118Z,11.38
2022-10-11T19:22:39.586Z,11.35
2022-10-11T19:25:06.594Z,11.32
2022-10-11T19:27:33.004Z,11.29
2022-10-11T19:30:00.341Z,11.25
2022-10-11T19:32:26.935Z,11.19
2022-10-11T19:34:53.387Z,11.14
2022-10-11T19:37:19.900Z,11.08
2022-10-11T19:39:46.377Z,11.02
2022-10-11T19:42:12.770Z,10.97
2022-10-11T19:44:39.818Z,10.93
2022-10-11T19:47:06.579Z,10.92
2022-10-11T19:49:33.088Z,10.91
2022-10-11T19:52:01.009Z,10.88
2022-10-11T19:54:27.941Z,10.84
2022-10-11T19:56:54.481Z,10.80
2022-10-11T19:59:21.157Z,10.74
2022-10-11T20:01:52.449Z,10.75
2022-10-11T20:04:51.247Z,10.71
2022-10-11T20:07:07.163Z,10.67
2022-10-11T20:09:33.736Z,10.62
2022-10-11T20:12:00.175Z,10.48
2022-10-11T20:14:26.699Z,10.41
2022-10-11T20:16:53.189Z,10.35
2022-10-11T20:19:20.055Z,10.32
2022-10-11T20:21:47.499Z,10.35
2022-10-11T20:24:13.996Z,10.30
2022-10-11T20:26:40.403Z,10.30
2022-10-11T20:29:06.871Z,10.28
2022-10-11T20:31:35.130Z,10.20
2022-10-11T20:34:04.178Z,10.25
2022-10-11T20:36:31.998Z,10.21
2022-10-11T20:38:59.315Z,10.21
2022-10-11T20:41:28.615Z,10.17
2022-10-11T20:43:56.909Z,10.08
2022-10-11T20:46:26.767Z,10.06
2022-10-11T20:49:00.413Z,10.01
2022-10-11T20:51:28.793Z,9.95
2022-10-11T20:53:56.328Z,9.92
2022-10-11T20:56:23.601Z,9.89
2022-10-11T20:58:52.529Z,9.82
2022-10-11T21:01:21.482Z,9.82
2022-10-11T21:03:48.166Z,9.82
2022-10-11T21:06:14.651Z,9.82
2022-10-11T21:08:41.580Z,9.76
2022-10-11T21:11:08.442Z,9.68
2022-10-11T21:13:35.681Z,9.66
2022-10-11T21:16:07.923Z,9.59
2022-10-11T21:18:34.421Z,9.59
2022-10-11T21:21:07.995Z,9.57
2022-10-11T21:23:35.109Z,9.60
2022-10-11T21:26:06.403Z,9.54
2022-10-11T21:28:33.674Z,9.51
2022-10-11T21:31:05.268Z,9.47
2022-10-11T21:33:32.804Z,9.47
2022-10-11T21:36:00.080Z,9.41
2022-10-11T21:38:26.516Z,9.41
2022-10-11T21:40:52.939Z,9.38
2022-10-11T21:43:19.367Z,9.34
2022-10-11T21:45:46.061Z,9.29
2022-10-11T21:48:12.496Z,9.23
2022-10-11T21:50:38.901Z,9.17
2022-10-11T21:53:05.321Z,9.15
2022-10-11T21:55:31.762Z,9.07
2022-10-11T21:57:58.210Z,8.98
2022-10-11T22:00:24.601Z,8.91
2022-10-11T22:02:52.787Z,8.87
2022-10-11T22:05:19.276Z,8.88
2022-10-11T22:07:46.819Z,8.88
2022-10-11T22:10:13.265Z,8.87
2022-10-11T22:12:39.684Z,8.85
2022-10-11T22:15:06.822Z,8.80
2022-10-11T22:17:33.267Z,8.80
2022-10-11T22:20:00.160Z,8.83
2022-10-11T22:22:26.612Z,8.82
2022-10-11T22:24:53.086Z,8.79
2022-10-11T22:27:19.530Z,8.76
2022-10-11T22:29:45.942Z,8.69
2022-10-11T22:32:12.378Z,8.67
2022-10-11T22:34:38.815Z,8.61
2022-10-11T22:37:05.238Z,8.70
2022-10-11T22:39:31.662Z,8.67
2022-10-11T22:41:58.062Z,8.64
2022-10-11T22:44:24.531Z,8.62
2022-10-11T22:46:50.974Z,8.59
2022-10-11T22:49:17.399Z,8.55
2022-10-11T22:51:44.483Z,8.50
2022-10-11T22:54:11.249Z,8.46
2022-10-11T22:56:37.678Z,8.47
2022-10-11T22:59:04.476Z,8.45
2022-10-11T23:01:30.892Z,8.42
2022-10-11T23:03:57.460Z,8.44
2022-10-11T23:06:23.921Z,8.41
2022-10-11T23:08:50.367Z,8.39
2022-10-11T23:11:16.890Z,8.33
2022-10-11T23:13:43.375Z,8.23
2022-10-11T23:16:11.138Z,8.29
2022-10-11T23:18:38.260Z,8.24
2022-10-11T23:21:06.036Z,8.25
2022-10-11T23:23:33.206Z,8.24
2022-10-11T23:26:04.737Z,8.20
2022-10-11T23:28:31.315Z,8.18
2022-10-11T23:30:57.814Z,8.14
2022-10-11T23:33:24.535Z,8.13
2022-10-11T23:35:51.016Z,8.15
2022-10-11T23:38:17.478Z,8.16
2022-10-11T23:40:43.907Z,8.06
2022-10-11T23:43:10.358Z,7.84
2022-10-11T23:45:36.755Z,7.77
2022-10-11T23:48:03.603Z,7.78
2022-10-11T23:50:30.048Z,7.82
2022-10-11T23:52:57.077Z,7.82
2022-10-11T23:55:23.517Z,7.90
2022-10-11T23:57:49.928Z,7.89
